37  °F
Temperature
27  °F
  Dewpoint
   Humidity
Temp | Dewpoint | Humidity
11  km/h
Wind Speed
7  mph
Wind Speed
6  kts
Wind Speed
350°
Due North

Wind Speed
Clear
Conditions
Pressure 1021.3 (hPa) - 30.15 (in)
Visibility 10.0 (mi) - 16.1 (km)

Current Conditions
KAVP
Location Wilkes-Barre / Scranton International 6km (3.2mi)
Metar :KAVP 220354Z 35006KT 10SM CLR 03/M03 A3015 RMK AO2 SLP213 T00331033
Thu 21st February 22:54 pm

Airport
  Metar Aviation API Data Provided by https://www.checkwx.com/ CSS/SVG/PHP scripts by weather34.com © 2015-2019